Historique des mesures à Cassis (13260), France
Quotidien Résumé Mars 27, 2021 Unités:  Métrique/US    US   Métrique
Quotidien Hebdomadaire Mensuel Annuel
  Maximum: Minimum: Moyenne:
Température: 88.3 °F /  31.3 °C 71.4 °F /  21.9 °C 80.6 °F /  27 °C
Point de rosée: 72.9 °F /  22.7 °C 59.5 °F /  15.3 °C 66 °F /  18.9 °C
Humidité: 79% 52% 62%
Vitesse du vent: 3.8mph /  6.1km/h - 1.5mph /  2.4km/h
Rafales: 8.5mph /  13.7km/h - -
Vent- - SW
Pression: 29.9 in /  1011.9 hPa 29.8 in /  1009.9 hPa -
Précipitations: 0 in /  0.0 mm    
Historical Graphs
 
 
Mesures pour : Mars 27, 2021
Heure Temperature Point de rosée Pression Vent Vitesse du vent Rafales Humidité Pluie (par heure)
00:11 78.6 °F /  25.9 °C 59.5 °F /  15.3 °C 29.8in /  1010.6hPa NNW 0.7mph /  1.1km/h 1.6mph /  2.5km/h 52% 0in /  0.0mm
01:11 77.2 °F /  25.1 °C 60.3 °F /  15.7 °C 29.9in /  1010.8hPa NW 2.9mph /  4.7km/h 3.4mph /  5.4km/h 56% 0in /  0.0mm
02:11 75.9 °F /  24.4 °C 61.5 °F /  16.4 °C 29.8in /  1010.2hPa NW 2mph /  3.2km/h 3.8mph /  6.1km/h 61% 0in /  0.0mm
03:11 74.5 °F /  23.6 °C 60.1 °F /  15.6 °C 29.8in /  1010.2hPa Calm   3.1mph /  5km/h 61% 0in /  0.0mm
04:11 73.6 °F /  23.1 °C 61 °F /  16.1 °C 29.8in /  1010.2hPa NW 1.1mph /  1.8km/h 2mph /  3.2km/h 65% 0in /  0.0mm
05:11 72.3 °F /  22.4 °C 63.1 °F /  17.3 °C 29.8in /  1010.0hPa Calm   2.9mph /  4.7km/h 73% 0in /  0.0mm
06:11 71.4 °F /  21.9 °C 63.5 °F /  17.5 °C 29.8in /  1009.9hPa NW 1.4mph /  2.2km/h 2.9mph /  4.7km/h 76% 0in /  0.0mm
07:11 71.8 °F /  22.1 °C 64.9 °F /  18.3 °C 29.8in /  1009.9hPa NW 1.6mph /  2.5km/h 2.9mph /  4.7km/h 79% 0in /  0.0mm
08:11 88.2 °F /  31.2 °C 70 °F /  21.1 °C 29.8in /  1010.1hPa Calm   1.4mph /  2.2km/h 55% 0in /  0.0mm
09:11 81.1 °F /  27.3 °C 66 °F /  18.9 °C 29.8in /  1010.6hPa SW 1.1mph /  1.8km/h 5.8mph /  9.4km/h 60% 0in /  0.0mm
10:11 79.7 °F /  26.5 °C 67.8 °F /  19.9 °C 29.9in /  1011.2hPa SSE 3.1mph /  5km/h 5.8mph /  9.4km/h 67% 0in /  0.0mm
11:11 84.9 °F /  29.4 °C 71.4 °F /  21.9 °C 29.9in /  1011.6hPa SSW 3.8mph /  6.1km/h 7.8mph /  12.6km/h 64% 0in /  0.0mm
12:11 87.1 °F /  30.6 °C 72.5 °F /  22.5 °C 29.9in /  1011.9hPa South 3.4mph /  5.4km/h 8.5mph /  13.7km/h 62% 0in /  0.0mm
13:11 87.8 °F /  31 °C 72.9 °F /  22.7 °C 29.9in /  1011.7hPa SE 1.8mph /  2.9km/h 4.5mph /  7.2km/h 61% 0in /  0.0mm
14:11 88.3 °F /  31.3 °C 72.9 °F /  22.7 °C 29.9in /  1011.6hPa South 3.4mph /  5.4km/h 7.4mph /  11.9km/h 60% 0in /  0.0mm
15:11 87.6 °F /  30.9 °C 72.7 °F /  22.6 °C 29.9in /  1011.7hPa SSE 3.1mph /  5km/h 6.5mph /  10.4km/h 61% 0in /  0.0mm
16:11 86.7 °F /  30.4 °C 71.8 °F /  22.1 °C 29.9in /  1011.5hPa ESE 3.1mph /  5km/h 4mph /  6.5km/h 61% 0in /  0.0mm
17:11 86.2 °F /  30.1 °C 68.5 °F /  20.3 °C 29.9in /  1011.7hPa SSW 0.7mph /  1.1km/h 6.7mph /  10.8km/h 56% 0in /  0.0mm
18:11 85.8 °F /  29.9 °C 67.8 °F /  19.9 °C 29.9in /  1011.2hPa Calm   4mph /  6.5km/h 55% 0in /  0.0mm
19:11 85.1 °F /  29.5 °C 66.6 °F /  19.2 °C 29.9in /  1010.8hPa Calm   4.5mph /  7.2km/h 54% 0in /  0.0mm
20:11 83.3 °F /  28.5 °C 64.4 °F /  18 °C 29.9in /  1010.9hPa Calm   3.4mph /  5.4km/h 53% 0in /  0.0mm
21:11 79.2 °F /  26.2 °C 64.2 °F /  17.9 °C 29.9in /  1011.1hPa Calm     60% 0in /  0.0mm
22:11 76.1 °F /  24.5 °C 60.8 °F /  16 °C 29.9in /  1011.6hPa Calm   2mph /  3.2km/h 59% 0in /  0.0mm
23:11 73.9 °F /  23.3 °C 61 °F /  16.1 °C 29.9in /  1011.7hPa WNW 2.2mph /  3.6km/h 5.3mph /  8.6km/h 64% 0in /  0.0mm
Observations météo à CASSIS
WU-History script by Weather Underground - 2 mb